CheckWX is a tool to help pilots better visualize weather data.  It is not intended as a substitute for an official pre-flight weather briefing.

17:15:25 UTC

VTPB METAR
Phetchabun Airport
Thailand
Current

6 hours ago

VTPB 191100Z 03004KT 350V070 9000 FEW020TCU SCT025 29/24 Q1008 NOSIG
Observed
Sep-19 @ 11:00 UTC
Wind
  • 030° at 4 KTS
Visibility
9,000 meters
Flight Rules
VFR
Cloud Levels
  • Few at 2,000' AGL
  • Scattered at 2,500' AGL
Temperature
29°C / 84°F
Dewpoint
24°C / 75°F
Heat Index
33°C / 92°F
Humidity
74%
Altimeter
29.76" Hg
Pressure
1007.92 hPa
Previous

7 hours ago

VTPB 191000Z 02005KT 310V060 9000 FEW020TCU SCT025 SCT100 29/24 Q1007 RERA NOSIG
Observed
Sep-19 @ 10:00 UTC
Wind
  • 020° at 5 KTS
Visibility
9,000 meters
Flight Rules
VFR
Cloud Levels
  • Few at 2,000' AGL
  • Scattered at 2,500' AGL
  • Scattered at 10,000' AGL
Temperature
29°C / 84°F
Dewpoint
24°C / 75°F
Heat Index
33°C / 92°F
Humidity
74%
Altimeter
29.73" Hg
Pressure
1006.92 hPa
Previous

8 hours ago

VTPB 190900Z 02010KT 340V070 9000 -RA FEW020CB SCT022 SCT100 32/23 Q1007 TEMPO 5000 TSRA
Observed
Sep-19 @ 09:00 UTC
Wind
  • 020° at 10 KTS
Visibility
9,000 meters
Flight Rules
VFR
Conditions
Light Rain
Cloud Levels
  • Few at 2,000' AGL
  • Scattered at 2,200' AGL
  • Scattered at 10,000' AGL
Temperature
32°C / 90°F
Dewpoint
23°C / 73°F
Heat Index
37°C / 99°F
Humidity
59%
Altimeter
29.73" Hg
Pressure
1006.92 hPa